This is the latest recevied weather packets stored in our database for station/object DL7GAI-7. If no packets are shown the sender has not sent any weather packets the latest 10 day(s).
| Time | Temp. | Humidity | Pressure | Rain* | Wind** | Luminosity | Snow |
|---|---|---|---|---|---|---|---|
| 1777493142 | 15° C | 36% | 1019.8 hPa | 0 mm | 3.13 m/s, 90° | - | - |
| 1777492330 | 15° C | 36% | 1019.8 hPa | 0 mm | 3.13 m/s, 90° | - | - |
| 1777491553 | 15° C | 36% | 1019.8 hPa | 0 mm | 3.13 m/s, 90° | - | - |
| 1777490733 | 16.67° C | 33% | 1018.9 hPa | 0 mm | 4.02 m/s, 45° | - | - |
| 1777489960 | 16.67° C | 33% | 1018.9 hPa | 0 mm | 4.02 m/s, 45° | - | - |
| 1777489140 | 16.67° C | 33% | 1018.9 hPa | 0 mm | 4.02 m/s, 45° | - | - |
| 1777488310 | 16.67° C | 33% | 1018.9 hPa | 0 mm | 4.02 m/s, 45° | - | - |
| 1777487558 | 17.22° C | 32% | 1018.4 hPa | 0 mm | 4.47 m/s, 45° | - | - |
| 1777486760 | 17.22° C | 32% | 1018.4 hPa | 0 mm | 4.47 m/s, 45° | - | - |
| 1777485953 | 17.78° C | 29% | 1018.2 hPa | 0 mm | 5.81 m/s, 90° | - | - |
| 1777485158 | 17.78° C | 29% | 1018.2 hPa | 0 mm | 5.81 m/s, 90° | - | - |
| 1777484407 | 17.78° C | 29% | 1018.2 hPa | 0 mm | 5.81 m/s, 90° | - | - |
| 1777483613 | 18.33° C | 27% | 1018.1 hPa | 0 mm | 5.81 m/s, 90° | - | - |
| 1777482765 | 18.33° C | 27% | 1018.1 hPa | 0 mm | 5.81 m/s, 90° | - | - |
| 1777481953 | 18.33° C | 27% | 1018.1 hPa | 0 mm | 5.81 m/s, 90° | - | - |
| 1777481125 | 18.33° C | 27% | 1018.1 hPa | 0 mm | 5.81 m/s, 90° | - | - |
| 1777480350 | 18.89° C | 28% | 1018 hPa | 0 mm | 6.26 m/s, 90° | - | - |
| 1777479540 | 18.89° C | 28% | 1018 hPa | 0 mm | 6.26 m/s, 90° | - | - |
| 1777478750 | 18.33° C | 30% | 1017.9 hPa | 0 mm | 6.71 m/s, 90° | - | - |
| 1777477900 | 18.33° C | 30% | 1017.9 hPa | 0 mm | 6.71 m/s, 90° | - | - |
| 1777477113 | 18.33° C | 30% | 1017.9 hPa | 0 mm | 6.71 m/s, 90° | - | - |
| 1777476280 | 19.44° C | 33% | 1017.6 hPa | 0 mm | 5.81 m/s, 45° | - | - |
| 1777475460 | 19.44° C | 33% | 1017.6 hPa | 0 mm | 5.81 m/s, 45° | - | - |
| 1777474680 | 19.44° C | 33% | 1017.6 hPa | 0 mm | 5.81 m/s, 45° | - | - |
| 1777473855 | 19.44° C | 33% | 1017.6 hPa | 0 mm | 5.81 m/s, 45° | - | - |
* Rain latest hour (hover to see other rain measurements)
** Current wind speed in m/s (hover to see current wind gust speed)